Station Historical Data
Daily Summary for January 11, 2018 Units:  Both    English   Metric
« Previous Day
Next Day »
Daily Weekly Monthly Yearly Custom
  High: Low: Average:
Temperature: TemperatureF °F /  -17.8 °C 47.8 °F /  8.8 °C 53.8 °F /  12.1 °C
Dew Point: DewpointF °F /  -17.8 °C 38.2 °F /  3.4 °C 45.5 °F /  7.5 °C
Humidity: Humidity% 65% 73%
Wind Speed: WindSpeedMPHmph /  0km/h - 6.6mph /  10.6km/h
Wind Gust: WindSpeedGustMPHmph /  0km/h - -
Wind- - South
Pressure: PressureIn in /  0 hPa 29.80 in /  1009 hPa -
Precipitation: 0.00 in /  0 mm    
Historical Graphs
 
 
Tabular Data for January 11, 2018
Time Temperature Dew Point Pressure Wind Wind Speed Wind Gust Humidity Rainfall Rate (Hourly)
TemperatureF °F /  -17.8 °C DewpointF °F /  -17.8 °C PressureInin /  0hPa Calm     Humidity% HourlyPrecipInin /  0mm
00:04 48.6 °F /  9.2 °C 39.3 °F /  4.1 °C 30.06in /  1017.8hPa SSW 10.0mph /  16.1km/h 17.0mph /  27.4km/h 70% 0.00in /  0mm
00:09 48.7 °F /  9.3 °C 39.0 °F /  3.9 °C 30.06in /  1017.8hPa South 7.0mph /  11.3km/h 17.0mph /  27.4km/h 69% 0.00in /  0mm
00:19 48.6 °F /  9.2 °C 38.9 °F /  3.8 °C 30.06in /  1017.8hPa SSW 6.0mph /  9.7km/h 15.0mph /  24.1km/h 69% 0.00in /  0mm
00:24 48.5 °F /  9.2 °C 38.8 °F /  3.8 °C 30.06in /  1017.8hPa SSW 5.0mph /  8km/h 18.0mph /  29km/h 69% 0.00in /  0mm
00:29 48.7 °F /  9.3 °C 39.0 °F /  3.9 °C 30.05in /  1017.5hPa South 12.0mph /  19.3km/h 14.0mph /  22.5km/h 69% 0.00in /  0mm
00:34 48.8 °F /  9.3 °C 39.1 °F /  3.9 °C 30.05in /  1017.5hPa South 7.0mph /  11.3km/h 15.0mph /  24.1km/h 69% 0.00in /  0mm
00:39 48.8 °F /  9.3 °C 38.7 °F /  3.7 °C 30.05in /  1017.5hPa South 8.0mph /  12.9km/h 15.0mph /  24.1km/h 68% 0.00in /  0mm
00:49 48.8 °F /  9.3 °C 38.7 °F /  3.7 °C 30.05in /  1017.5hPa South 7.0mph /  11.3km/h 16.0mph /  25.7km/h 68% 0.00in /  0mm
00:54 48.7 °F /  9.3 °C 38.6 °F /  3.7 °C 30.05in /  1017.5hPa South 7.0mph /  11.3km/h 16.0mph /  25.7km/h 68% 0.00in /  0mm
00:59 48.6 °F /  9.2 °C 38.5 °F /  3.6 °C 30.05in /  1017.5hPa South 7.0mph /  11.3km/h 14.0mph /  22.5km/h 68% 0.00in /  0mm
01:04 48.5 °F /  9.2 °C 38.4 °F /  3.6 °C 30.05in /  1017.5hPa SSE 11.0mph /  17.7km/h 13.0mph /  20.9km/h 68% 0.00in /  0mm
01:09 48.3 °F /  9.1 °C 38.2 °F /  3.4 °C 30.05in /  1017.5hPa South 6.0mph /  9.7km/h 13.0mph /  20.9km/h 68% 0.00in /  0mm
01:14 48.3 °F /  9.1 °C 38.2 °F /  3.4 °C 30.05in /  1017.5hPa South 7.0mph /  11.3km/h 13.0mph /  20.9km/h 68% 0.00in /  0mm
01:19 48.2 °F /  9 °C 38.5 °F /  3.6 °C 30.05in /  1017.5hPa South 7.0mph /  11.3km/h 13.0mph /  20.9km/h 69% 0.00in /  0mm
01:29 48.1 °F /  8.9 °C 38.4 °F /  3.6 °C 30.05in /  1017.5hPa SSW 9.0mph /  14.5km/h 11.0mph /  17.7km/h 69% 0.00in /  0mm
01:34 48.1 °F /  8.9 °C 38.4 °F /  3.6 °C 30.05in /  1017.5hPa South 7.0mph /  11.3km/h 14.0mph /  22.5km/h 69% 0.00in /  0mm
01:39 48.1 °F /  8.9 °C 38.4 °F /  3.6 °C 30.05in /  1017.5hPa SW 10.0mph /  16.1km/h 13.0mph /  20.9km/h 69% 0.00in /  0mm
01:44 48.3 °F /  9.1 °C 38.6 °F /  3.7 °C 30.06in /  1017.8hPa SSE 11.0mph /  17.7km/h 16.0mph /  25.7km/h 69% 0.00in /  0mm
01:49 48.3 °F /  9.1 °C 38.6 °F /  3.7 °C 30.05in /  1017.5hPa South 7.0mph /  11.3km/h 16.0mph /  25.7km/h 69% 0.00in /  0mm
01:54 48.1 °F /  8.9 °C 38.4 °F /  3.6 °C 30.05in /  1017.5hPa South 6.0mph /  9.7km/h 13.0mph /  20.9km/h 69% 0.00in /  0mm
01:59 48.1 °F /  8.9 °C 38.4 °F /  3.6 °C 30.05in /  1017.5hPa SSW 6.0mph /  9.7km/h 15.0mph /  24.1km/h 69% 0.00in /  0mm
02:09 48.3 °F /  9.1 °C 38.6 °F /  3.7 °C 30.06in /  1017.8hPa South 6.0mph /  9.7km/h 16.0mph /  25.7km/h 69% 0.00in /  0mm
02:14 48.3 °F /  9.1 °C 38.6 °F /  3.7 °C 30.06in /  1017.8hPa SSW 5.0mph /  8km/h 16.0mph /  25.7km/h 69% 0.00in /  0mm
02:19 48.2 °F /  9 °C 38.5 °F /  3.6 °C 30.06in /  1017.8hPa SSW 5.0mph /  8km/h 11.0mph /  17.7km/h 69% 0.00in /  0mm
02:24 48.1 °F /  8.9 °C 38.4 °F /  3.6 °C 30.06in /  1017.8hPa SSE 4.0mph /  6.4km/h 8.0mph /  12.9km/h 69% 0.00in /  0mm
02:29 47.9 °F /  8.8 °C 38.6 °F /  3.7 °C 30.06in /  1017.8hPa South 2.0mph /  3.2km/h 8.0mph /  12.9km/h 70% 0.00in /  0mm
02:34 47.8 °F /  8.8 °C 38.5 °F /  3.6 °C 30.05in /  1017.5hPa SSE 3.0mph /  4.8km/h 8.0mph /  12.9km/h 70% 0.00in /  0mm
02:39 48.0 °F /  8.9 °C 39.0 °F /  3.9 °C 30.06in /  1017.8hPa South 6.0mph /  9.7km/h 7.0mph /  11.3km/h 71% 0.00in /  0mm
02:44 48.3 °F /  9.1 °C 39.3 °F /  4.1 °C 30.06in /  1017.8hPa SSW 4.0mph /  6.4km/h 9.0mph /  14.5km/h 71% 0.00in /  0mm
02:59 48.3 °F /  9.1 °C 39.3 °F /  4.1 °C 30.06in /  1017.8hPa South 4.0mph /  6.4km/h 7.0mph /  11.3km/h 71% 0.00in /  0mm
03:04 48.5 °F /  9.2 °C 39.9 °F /  4.4 °C 30.05in /  1017.5hPa South 4.0mph /  6.4km/h 9.0mph /  14.5km/h 72% 0.00in /  0mm
03:09 48.7 °F /  9.3 °C 39.7 °F /  4.3 °C 30.06in /  1017.8hPa South 4.0mph /  6.4km/h 9.0mph /  14.5km/h 71% 0.00in /  0mm
03:14 48.7 °F /  9.3 °C 39.7 °F /  4.3 °C 30.05in /  1017.5hPa South 4.0mph /  6.4km/h 9.0mph /  14.5km/h 71% 0.00in /  0mm
03:19 49.0 °F /  9.4 °C 40.0 °F /  4.4 °C 30.05in /  1017.5hPa South 4.0mph /  6.4km/h 11.0mph /  17.7km/h 71% 0.00in /  0mm
03:24 49.3 °F /  9.6 °C 40.7 °F /  4.8 °C 30.05in /  1017.5hPa South 4.0mph /  6.4km/h 12.0mph /  19.3km/h 72% 0.00in /  0mm
03:29 49.7 °F /  9.8 °C 41.0 °F /  5 °C 30.06in /  1017.8hPa South 5.0mph /  8km/h 12.0mph /  19.3km/h 72% 0.00in /  0mm
03:39 50.2 °F /  10.1 °C 41.2 °F /  5.1 °C 30.05in /  1017.5hPa South 8.0mph /  12.9km/h 11.0mph /  17.7km/h 71% 0.00in /  0mm
03:49 50.5 °F /  10.3 °C 41.1 °F /  5.1 °C 30.05in /  1017.5hPa South 6.0mph /  9.7km/h 13.0mph /  20.9km/h 70% 0.00in /  0mm
03:54 50.4 °F /  10.2 °C 41.0 °F /  5 °C 30.05in /  1017.5hPa SSW 3.0mph /  4.8km/h 10.0mph /  16.1km/h 70% 0.00in /  0mm
03:59 50.2 °F /  10.1 °C 40.8 °F /  4.9 °C 30.05in /  1017.5hPa South 5.0mph /  8km/h 10.0mph /  16.1km/h 70% 0.00in /  0mm
04:04 50.2 °F /  10.1 °C 40.8 °F /  4.9 °C 30.05in /  1017.5hPa South 8.0mph /  12.9km/h 9.0mph /  14.5km/h 70% 0.00in /  0mm
04:09 50.4 °F /  10.2 °C 41.0 °F /  5 °C 30.06in /  1017.8hPa South 5.0mph /  8km/h 9.0mph /  14.5km/h 70% 0.00in /  0mm
04:14 50.5 °F /  10.3 °C 41.1 °F /  5.1 °C 30.06in /  1017.8hPa South 6.0mph /  9.7km/h 10.0mph /  16.1km/h 70% 0.00in /  0mm
04:19 50.5 °F /  10.3 °C 41.1 °F /  5.1 °C 30.06in /  1017.8hPa SSW 5.0mph /  8km/h 12.0mph /  19.3km/h 70% 0.00in /  0mm
04:24 50.6 °F /  10.3 °C 41.2 °F /  5.1 °C 30.06in /  1017.8hPa South 5.0mph /  8km/h 12.0mph /  19.3km/h 70% 0.00in /  0mm
04:34 50.5 °F /  10.3 °C 41.1 °F /  5.1 °C 30.05in /  1017.5hPa South 6.0mph /  9.7km/h 15.0mph /  24.1km/h 70% 0.00in /  0mm
04:39 50.6 °F /  10.3 °C 41.2 °F /  5.1 °C 30.06in /  1017.8hPa SSW 6.0mph /  9.7km/h 12.0mph /  19.3km/h 70% 0.00in /  0mm
04:44 50.7 °F /  10.4 °C 41.3 °F /  5.2 °C 30.06in /  1017.8hPa South 7.0mph /  11.3km/h 14.0mph /  22.5km/h 70% 0.00in /  0mm
04:49 50.9 °F /  10.5 °C 41.5 °F /  5.3 °C 30.06in /  1017.8hPa South 5.0mph /  8km/h 13.0mph /  20.9km/h 70% 0.00in /  0mm
04:54 51.2 °F /  10.7 °C 42.1 °F /  5.6 °C 30.06in /  1017.8hPa South 4.0mph /  6.4km/h 18.0mph /  29km/h 71% 0.00in /  0mm
04:59 51.3 °F /  10.7 °C 42.2 °F /  5.7 °C 30.06in /  1017.8hPa SSW 7.0mph /  11.3km/h 14.0mph /  22.5km/h 71% 0.00in /  0mm
05:04 51.4 °F /  10.8 °C 42.7 °F /  5.9 °C 30.06in /  1017.8hPa WSW 8.0mph /  12.9km/h 12.0mph /  19.3km/h 72% 0.00in /  0mm
05:09 51.5 °F /  10.8 °C 42.8 °F /  6 °C 30.06in /  1017.8hPa South 6.0mph /  9.7km/h 15.0mph /  24.1km/h 72% 0.00in /  0mm
05:14 51.4 °F /  10.8 °C 42.7 °F /  5.9 °C 30.06in /  1017.8hPa SSW 5.0mph /  8km/h 14.0mph /  22.5km/h 72% 0.00in /  0mm
05:19 51.2 °F /  10.7 °C 42.5 °F /  5.8 °C 30.06in /  1017.8hPa South 7.0mph /  11.3km/h 12.0mph /  19.3km/h 72% 0.00in /  0mm
05:24 50.9 °F /  10.5 °C 42.2 °F /  5.7 °C 30.06in /  1017.8hPa South 6.0mph /  9.7km/h 13.0mph /  20.9km/h 72% 0.00in /  0mm
05:29 50.9 °F /  10.5 °C 41.8 °F /  5.4 °C 30.06in /  1017.8hPa South 6.0mph /  9.7km/h 13.0mph /  20.9km/h 71% 0.00in /  0mm
05:34 50.9 °F /  10.5 °C 41.8 °F /  5.4 °C 30.06in /  1017.8hPa South 13.0mph /  20.9km/h 15.0mph /  24.1km/h 71% 0.00in /  0mm
05:39 51.0 °F /  10.6 °C 41.6 °F /  5.3 °C 30.06in /  1017.8hPa SSW 7.0mph /  11.3km/h 15.0mph /  24.1km/h 70% 0.00in /  0mm
05:44 51.1 °F /  10.6 °C 41.7 °F /  5.4 °C 30.06in /  1017.8hPa SSW 6.0mph /  9.7km/h 18.0mph /  29km/h 70% 0.00in /  0mm
05:49 51.0 °F /  10.6 °C 41.2 °F /  5.1 °C 30.06in /  1017.8hPa SSW 6.0mph /  9.7km/h 18.0mph /  29km/h 69% 0.00in /  0mm
05:54 50.8 °F /  10.4 °C 41.4 °F /  5.2 °C 30.06in /  1017.8hPa SW 11.0mph /  17.7km/h 11.0mph /  17.7km/h 70% 0.00in /  0mm
05:59 50.7 °F /  10.4 °C 41.3 °F /  5.2 °C 30.06in /  1017.8hPa SSW 5.0mph /  8km/h 13.0mph /  20.9km/h 70% 0.00in /  0mm
06:04 50.6 °F /  10.3 °C 41.2 °F /  5.1 °C 30.06in /  1017.8hPa SSW 6.0mph /  9.7km/h 18.0mph /  29km/h 70% 0.00in /  0mm
06:09 50.7 °F /  10.4 °C 41.3 °F /  5.2 °C 30.06in /  1017.8hPa SSW 3.0mph /  4.8km/h 12.0mph /  19.3km/h 70% 0.00in /  0mm
06:14 50.6 °F /  10.3 °C 41.2 °F /  5.1 °C 30.06in /  1017.8hPa SSW 6.0mph /  9.7km/h 16.0mph /  25.7km/h 70% 0.00in /  0mm
06:19 50.6 °F /  10.3 °C 41.2 °F /  5.1 °C 30.05in /  1017.5hPa SSW 7.0mph /  11.3km/h 12.0mph /  19.3km/h 70% 0.00in /  0mm
06:24 50.8 °F /  10.4 °C 41.7 °F /  5.4 °C 30.05in /  1017.5hPa SSW 7.0mph /  11.3km/h 15.0mph /  24.1km/h 71% 0.00in /  0mm
06:29 51.0 °F /  10.6 °C 41.9 °F /  5.5 °C 30.05in /  1017.5hPa South 7.0mph /  11.3km/h 15.0mph /  24.1km/h 71% 0.00in /  0mm
06:34 51.1 °F /  10.6 °C 42.0 °F /  5.6 °C 30.05in /  1017.5hPa South 8.0mph /  12.9km/h 17.0mph /  27.4km/h 71% 0.00in /  0mm
06:39 51.1 °F /  10.6 °C 42.0 °F /  5.6 °C 30.06in /  1017.8hPa SSW 7.0mph /  11.3km/h 17.0mph /  27.4km/h 71% 0.00in /  0mm
06:44 51.2 °F /  10.7 °C 42.1 °F /  5.6 °C 30.06in /  1017.8hPa South 7.0mph /  11.3km/h 15.0mph /  24.1km/h 71% 0.00in /  0mm
06:49 51.0 °F /  10.6 °C 41.9 °F /  5.5 °C 30.06in /  1017.8hPa South 14.0mph /  22.5km/h 19.0mph /  30.6km/h 71% 0.00in /  0mm
06:54 51.0 °F /  10.6 °C 41.9 °F /  5.5 °C 30.05in /  1017.5hPa SSW 8.0mph /  12.9km/h 16.0mph /  25.7km/h 71% 0.00in /  0mm
07:00 50.9 °F /  10.5 °C 41.8 °F /  5.4 °C 30.06in /  1017.8hPa South 8.0mph /  12.9km/h 16.0mph /  25.7km/h 71% 0.00in /  0mm
07:09 51.0 °F /  10.6 °C 42.6 °F /  5.9 °C 30.06in /  1017.8hPa SSW 8.0mph /  12.9km/h 16.0mph /  25.7km/h 73% 0.00in /  0mm
07:14 51.0 °F /  10.6 °C 42.3 °F /  5.7 °C 30.06in /  1017.8hPa SSW 8.0mph /  12.9km/h 16.0mph /  25.7km/h 72% 0.00in /  0mm
07:19 50.9 °F /  10.5 °C 42.6 °F /  5.9 °C 30.06in /  1017.8hPa SSW 7.0mph /  11.3km/h 14.0mph /  22.5km/h 73% 0.00in /  0mm
07:24 50.9 °F /  10.5 °C 42.6 °F /  5.9 °C 30.06in /  1017.8hPa South 7.0mph /  11.3km/h 12.0mph /  19.3km/h 73% 0.00in /  0mm
07:34 51.0 °F /  10.6 °C 42.6 °F /  5.9 °C 30.06in /  1017.8hPa South 7.0mph /  11.3km/h 16.0mph /  25.7km/h 73% 0.00in /  0mm
07:39 51.2 °F /  10.7 °C 42.8 °F /  6 °C 30.06in /  1017.8hPa SSW 7.0mph /  11.3km/h 17.0mph /  27.4km/h 73% 0.00in /  0mm
07:44 51.3 °F /  10.7 °C 42.9 °F /  6.1 °C 30.06in /  1017.8hPa SSW 7.0mph /  11.3km/h 17.0mph /  27.4km/h 73% 0.00in /  0mm
07:49 51.4 °F /  10.8 °C 43.0 °F /  6.1 °C 30.06in /  1017.8hPa SSW 9.0mph /  14.5km/h 15.0mph /  24.1km/h 73% 0.00in /  0mm
07:54 51.5 °F /  10.8 °C 43.1 °F /  6.2 °C 30.07in /  1018.2hPa SSW 7.0mph /  11.3km/h 15.0mph /  24.1km/h 73% 0.00in /  0mm
07:59 51.4 °F /  10.8 °C 43.0 °F /  6.1 °C 30.07in /  1018.2hPa South 9.0mph /  14.5km/h 15.0mph /  24.1km/h 73% 0.00in /  0mm
08:14 51.4 °F /  10.8 °C 42.7 °F /  5.9 °C 30.07in /  1018.2hPa South 7.0mph /  11.3km/h 15.0mph /  24.1km/h 72% 0.00in /  0mm
08:19 51.3 °F /  10.7 °C 42.6 °F /  5.9 °C 30.07in /  1018.2hPa SSW 6.0mph /  9.7km/h 13.0mph /  20.9km/h 72% 0.00in /  0mm
08:24 51.2 °F /  10.7 °C 42.8 °F /  6 °C 30.07in /  1018.2hPa SSW 6.0mph /  9.7km/h 13.0mph /  20.9km/h 73% 0.00in /  0mm
08:29 51.0 °F /  10.6 °C 43.0 °F /  6.1 °C 30.07in /  1018.2hPa SSW 7.0mph /  11.3km/h 16.0mph /  25.7km/h 74% 0.00in /  0mm
08:34 50.8 °F /  10.4 °C 43.2 °F /  6.2 °C 30.07in /  1018.2hPa South 7.0mph /  11.3km/h 12.0mph /  19.3km/h 75% 0.00in /  0mm
08:39 50.9 °F /  10.5 °C 43.3 °F /  6.3 °C 30.07in /  1018.2hPa SSW 5.0mph /  8km/h 14.0mph /  22.5km/h 75% 0.00in /  0mm
08:44 51.1 °F /  10.6 °C 43.4 °F /  6.3 °C 30.07in /  1018.2hPa South 6.0mph /  9.7km/h 14.0mph /  22.5km/h 75% 0.00in /  0mm
08:49 51.2 °F /  10.7 °C 43.5 °F /  6.4 °C 30.07in /  1018.2hPa South 6.0mph /  9.7km/h 15.0mph /  24.1km/h 75% 0.00in /  0mm
08:54 51.6 °F /  10.9 °C 43.9 °F /  6.6 °C 30.07in /  1018.2hPa South 6.0mph /  9.7km/h 15.0mph /  24.1km/h 75% 0.00in /  0mm
09:04 52.0 °F /  11.1 °C 44.0 °F /  6.7 °C 30.07in /  1018.2hPa South 6.0mph /  9.7km/h 11.0mph /  17.7km/h 74% 0.00in /  0mm
09:09 52.2 °F /  11.2 °C 44.2 °F /  6.8 °C 30.07in /  1018.2hPa SW 7.0mph /  11.3km/h 9.0mph /  14.5km/h 74% 0.00in /  0mm
09:14 52.4 °F /  11.3 °C 44.4 °F /  6.9 °C 30.07in /  1018.2hPa South 6.0mph /  9.7km/h 12.0mph /  19.3km/h 74% 0.00in /  0mm
09:24 52.9 °F /  11.6 °C 44.5 °F /  6.9 °C 30.07in /  1018.2hPa South 5.0mph /  8km/h 13.0mph /  20.9km/h 73% 0.00in /  0mm
09:29 53.3 °F /  11.8 °C 44.5 °F /  6.9 °C 30.07in /  1018.2hPa SSW 4.0mph /  6.4km/h 14.0mph /  22.5km/h 72% 0.00in /  0mm
09:34 53.3 °F /  11.8 °C 44.5 °F /  6.9 °C 30.07in /  1018.2hPa South 4.0mph /  6.4km/h 11.0mph /  17.7km/h 72% 0.00in /  0mm
09:39 53.4 °F /  11.9 °C 44.6 °F /  7 °C 30.08in /  1018.5hPa SSW 6.0mph /  9.7km/h 12.0mph /  19.3km/h 72% 0.00in /  0mm
09:44 53.2 °F /  11.8 °C 44.8 °F /  7.1 °C 30.07in /  1018.2hPa SSW 6.0mph /  9.7km/h 12.0mph /  19.3km/h 73% 0.00in /  0mm
09:49 53.0 °F /  11.7 °C 44.9 °F /  7.2 °C 30.08in /  1018.5hPa SSW 6.0mph /  9.7km/h 13.0mph /  20.9km/h 74% 0.00in /  0mm
09:54 52.9 °F /  11.6 °C 45.2 °F /  7.3 °C 30.08in /  1018.5hPa SSW 5.0mph /  8km/h 12.0mph /  19.3km/h 75% 0.00in /  0mm
09:59 52.7 °F /  11.5 °C 45.0 °F /  7.2 °C 30.08in /  1018.5hPa South 10.0mph /  16.1km/h 11.0mph /  17.7km/h 75% 0.00in /  0mm
10:04 52.8 °F /  11.6 °C 45.1 °F /  7.3 °C 30.08in /  1018.5hPa South 6.0mph /  9.7km/h 12.0mph /  19.3km/h 75% 0.00in /  0mm
10:09 53.1 °F /  11.7 °C 45.4 °F /  7.4 °C 30.09in /  1018.8hPa SSW 6.0mph /  9.7km/h 14.0mph /  22.5km/h 75% 0.00in /  0mm
10:14 53.0 °F /  11.7 °C 45.3 °F /  7.4 °C 30.08in /  1018.5hPa South 8.0mph /  12.9km/h 15.0mph /  24.1km/h 75% 0.00in /  0mm
10:19 52.6 °F /  11.4 °C 45.2 °F /  7.3 °C 30.08in /  1018.5hPa South 5.0mph /  8km/h 14.0mph /  22.5km/h 76% 0.00in /  0mm
10:24 52.2 °F /  11.2 °C 45.5 °F /  7.5 °C 30.08in /  1018.5hPa South 6.0mph /  9.7km/h 14.0mph /  22.5km/h 78% 0.00in /  0mm
10:29 52.2 °F /  11.2 °C 45.9 °F /  7.7 °C 30.08in /  1018.5hPa South 7.0mph /  11.3km/h 17.0mph /  27.4km/h 79% 0.00in /  0mm
10:34 52.2 °F /  11.2 °C 45.5 °F /  7.5 °C 30.08in /  1018.5hPa South 7.0mph /  11.3km/h 17.0mph /  27.4km/h 78% 0.00in /  0mm
10:49 53.1 °F /  11.7 °C 46.4 °F /  8 °C 30.07in /  1018.2hPa SSW 5.0mph /  8km/h 8.0mph /  12.9km/h 78% 0.00in /  0mm
10:54 53.6 °F /  12 °C 46.2 °F /  7.9 °C 30.07in /  1018.2hPa South 5.0mph /  8km/h 16.0mph /  25.7km/h 76% 0.00in /  0mm
10:59 53.9 °F /  12.2 °C 46.2 °F /  7.9 °C 30.07in /  1018.2hPa SSE 5.0mph /  8km/h 14.0mph /  22.5km/h 75% 0.00in /  0mm
11:04 54.5 °F /  12.5 °C 46.0 °F /  7.8 °C 30.07in /  1018.2hPa South 7.0mph /  11.3km/h 14.0mph /  22.5km/h 73% 0.00in /  0mm
11:14 55.6 °F /  13.1 °C 46.3 °F /  7.9 °C 30.05in /  1017.5hPa SSE 7.0mph /  11.3km/h 12.0mph /  19.3km/h 71% 0.00in /  0mm
11:19 56.1 °F /  13.4 °C 46.4 °F /  8 °C 30.05in /  1017.5hPa South 6.0mph /  9.7km/h 15.0mph /  24.1km/h 70% 0.00in /  0mm
11:24 56.3 °F /  13.5 °C 46.6 °F /  8.1 °C 30.05in /  1017.5hPa South 1.0mph /  1.6km/h 10.0mph /  16.1km/h 70% 0.00in /  0mm
11:29 56.2 °F /  13.4 °C 46.5 °F /  8.1 °C 30.05in /  1017.5hPa South 9.0mph /  14.5km/h 11.0mph /  17.7km/h 70% 0.00in /  0mm
11:34 56.3 °F /  13.5 °C 46.6 °F /  8.1 °C 30.04in /  1017.2hPa South 4.0mph /  6.4km/h 17.0mph /  27.4km/h 70% 0.00in /  0mm
11:39 56.5 °F /  13.6 °C 47.2 °F /  8.4 °C 30.04in /  1017.2hPa South 7.0mph /  11.3km/h 17.0mph /  27.4km/h 71% 0.00in /  0mm
11:44 56.8 °F /  13.8 °C 47.1 °F /  8.4 °C 30.04in /  1017.2hPa South 6.0mph /  9.7km/h 12.0mph /  19.3km/h 70% 0.00in /  0mm
11:49 57.1 °F /  13.9 °C 47.4 °F /  8.6 °C 30.04in /  1017.2hPa South 6.0mph /  9.7km/h 12.0mph /  19.3km/h 70% 0.00in /  0mm
11:54 57.6 °F /  14.2 °C 47.9 °F /  8.8 °C 30.03in /  1016.8hPa SSE 9.0mph /  14.5km/h 20.0mph /  32.2km/h 70% 0.00in /  0mm
11:59 58.0 °F /  14.4 °C 47.5 °F /  8.6 °C 30.03in /  1016.8hPa SSW 9.0mph /  14.5km/h 13.0mph /  20.9km/h 68% 0.00in /  0mm
12:04 58.0 °F /  14.4 °C 47.5 °F /  8.6 °C 30.03in /  1016.8hPa South 8.0mph /  12.9km/h 17.0mph /  27.4km/h 68% 0.00in /  0mm
12:09 58.3 °F /  14.6 °C 47.8 °F /  8.8 °C 30.02in /  1016.5hPa South 8.0mph /  12.9km/h 17.0mph /  27.4km/h 68% 0.00in /  0mm
12:14 58.6 °F /  14.8 °C 47.3 °F /  8.5 °C 30.02in /  1016.5hPa SSW 7.0mph /  11.3km/h 13.0mph /  20.9km/h 66% 0.00in /  0mm
12:19 59.1 °F /  15.1 °C 47.7 °F /  8.7 °C 30.01in /  1016.1hPa SSW 8.0mph /  12.9km/h 18.0mph /  29km/h 66% 0.00in /  0mm
12:24 59.2 °F /  15.1 °C 47.8 °F /  8.8 °C 30.01in /  1016.1hPa SSW 5.0mph /  8km/h 17.0mph /  27.4km/h 66% 0.00in /  0mm
12:34 60.0 °F /  15.6 °C 48.2 °F /  9 °C 30.00in /  1015.8hPa SW 5.0mph /  8km/h 18.0mph /  29km/h 65% 0.00in /  0mm
12:39 60.0 °F /  15.6 °C 48.2 °F /  9 °C 30.00in /  1015.8hPa South 14.0mph /  22.5km/h 14.0mph /  22.5km/h 65% 0.00in /  0mm
12:44 60.0 °F /  15.6 °C 48.2 °F /  9 °C 30.00in /  1015.8hPa SSW 8.0mph /  12.9km/h 19.0mph /  30.6km/h 65% 0.00in /  0mm
12:49 60.2 °F /  15.7 °C 48.4 °F /  9.1 °C 30.00in /  1015.8hPa SSW 8.0mph /  12.9km/h 19.0mph /  30.6km/h 65% 0.00in /  0mm
12:54 59.9 °F /  15.5 °C 48.5 °F /  9.2 °C 29.99in /  1015.5hPa South 9.0mph /  14.5km/h 18.0mph /  29km/h 66% 0.00in /  0mm
12:59 59.7 °F /  15.4 °C 48.3 °F /  9.1 °C 29.99in /  1015.5hPa SE 3.0mph /  4.8km/h 17.0mph /  27.4km/h 66% 0.00in /  0mm
13:04 59.6 °F /  15.3 °C 48.2 °F /  9 °C 29.99in /  1015.5hPa SSW 10.0mph /  16.1km/h 15.0mph /  24.1km/h 66% 0.00in /  0mm
13:09 59.6 °F /  15.3 °C 48.6 °F /  9.2 °C 29.99in /  1015.5hPa SSW 7.0mph /  11.3km/h 14.0mph /  22.5km/h 67% 0.00in /  0mm
13:14 59.7 °F /  15.4 °C 48.7 °F /  9.3 °C 29.98in /  1015.1hPa South 8.0mph /  12.9km/h 19.0mph /  30.6km/h 67% 0.00in /  0mm
13:19 59.7 °F /  15.4 °C 48.7 °F /  9.3 °C 29.98in /  1015.1hPa SSW 8.0mph /  12.9km/h 19.0mph /  30.6km/h 67% 0.00in /  0mm
13:24 59.7 °F /  15.4 °C 48.7 °F /  9.3 °C 29.98in /  1015.1hPa SSW 8.0mph /  12.9km/h 19.0mph /  30.6km/h 67% 0.00in /  0mm
13:29 59.9 °F /  15.5 °C 48.9 °F /  9.4 °C 29.98in /  1015.1hPa South 6.0mph /  9.7km/h 13.0mph /  20.9km/h 67% 0.00in /  0mm
13:34 60.0 °F /  15.6 °C 49.0 °F /  9.4 °C 29.98in /  1015.1hPa SSW 7.0mph /  11.3km/h 16.0mph /  25.7km/h 67% 0.00in /  0mm
13:39 60.0 °F /  15.6 °C 49.0 °F /  9.4 °C 29.97in /  1014.8hPa SSE 9.0mph /  14.5km/h 18.0mph /  29km/h 67% 0.00in /  0mm
13:54 60.3 °F /  15.7 °C 49.3 °F /  9.6 °C 29.97in /  1014.8hPa South 7.0mph /  11.3km/h 20.0mph /  32.2km/h 67% 0.00in /  0mm
13:59 60.9 °F /  16.1 °C 49.5 °F /  9.7 °C 29.96in /  1014.4hPa SSW 8.0mph /  12.9km/h 18.0mph /  29km/h 66% 0.00in /  0mm
14:09 60.6 °F /  15.9 °C 49.2 °F /  9.6 °C 29.96in /  1014.4hPa South 8.0mph /  12.9km/h 19.0mph /  30.6km/h 66% 0.00in /  0mm
14:14 60.6 °F /  15.9 °C 49.2 °F /  9.6 °C 29.95in /  1014.1hPa South 7.0mph /  11.3km/h 13.0mph /  20.9km/h 66% 0.00in /  0mm
14:19 60.5 °F /  15.8 °C 49.1 °F /  9.5 °C 29.95in /  1014.1hPa South 3.0mph /  4.8km/h 13.0mph /  20.9km/h 66% 0.00in /  0mm
14:24 60.4 °F /  15.8 °C 49.0 °F /  9.4 °C 29.95in /  1014.1hPa SSE 14.0mph /  22.5km/h 14.0mph /  22.5km/h 66% 0.00in /  0mm
14:29 60.4 °F /  15.8 °C 49.0 °F /  9.4 °C 29.95in /  1014.1hPa South 6.0mph /  9.7km/h 14.0mph /  22.5km/h 66% 0.00in /  0mm
14:34 60.5 °F /  15.8 °C 49.1 °F /  9.5 °C 29.95in /  1014.1hPa South 7.0mph /  11.3km/h 15.0mph /  24.1km/h 66% 0.00in /  0mm
14:39 60.6 °F /  15.9 °C 49.2 °F /  9.6 °C 29.95in /  1014.1hPa South 7.0mph /  11.3km/h 15.0mph /  24.1km/h 66% 0.00in /  0mm
14:44 60.6 °F /  15.9 °C 49.2 °F /  9.6 °C 29.95in /  1014.1hPa SW 9.0mph /  14.5km/h 10.0mph /  16.1km/h 66% 0.00in /  0mm
14:49 60.5 °F /  15.8 °C 49.1 °F /  9.5 °C 29.95in /  1014.1hPa SSW 7.0mph /  11.3km/h 12.0mph /  19.3km/h 66% 0.00in /  0mm
14:54 60.4 °F /  15.8 °C 49.0 °F /  9.4 °C 29.95in /  1014.1hPa South 7.0mph /  11.3km/h 12.0mph /  19.3km/h 66% 0.00in /  0mm
14:59 60.3 °F /  15.7 °C 48.9 °F /  9.4 °C 29.95in /  1014.1hPa South 6.0mph /  9.7km/h 13.0mph /  20.9km/h 66% 0.00in /  0mm
15:04 60.2 °F /  15.7 °C 48.8 °F /  9.3 °C 29.95in /  1014.1hPa South 5.0mph /  8km/h 13.0mph /  20.9km/h 66% 0.00in /  0mm
15:09 60.1 °F /  15.6 °C 48.7 °F /  9.3 °C 29.94in /  1013.8hPa South 4.0mph /  6.4km/h 10.0mph /  16.1km/h 66% 0.00in /  0mm
15:14 60.1 °F /  15.6 °C 48.7 °F /  9.3 °C 29.94in /  1013.8hPa South 5.0mph /  8km/h 13.0mph /  20.9km/h 66% 0.00in /  0mm
15:19 60.0 °F /  15.6 °C 48.6 °F /  9.2 °C 29.95in /  1014.1hPa South 5.0mph /  8km/h 13.0mph /  20.9km/h 66% 0.00in /  0mm
15:24 60.1 °F /  15.6 °C 48.7 °F /  9.3 °C 29.95in /  1014.1hPa SW 8.0mph /  12.9km/h 9.0mph /  14.5km/h 66% 0.00in /  0mm
15:29 59.9 °F /  15.5 °C 48.5 °F /  9.2 °C 29.95in /  1014.1hPa SW 3.0mph /  4.8km/h 8.0mph /  12.9km/h 66% 0.00in /  0mm
15:34 59.9 °F /  15.5 °C 48.5 °F /  9.2 °C 29.95in /  1014.1hPa SSW 5.0mph /  8km/h 9.0mph /  14.5km/h 66% 0.00in /  0mm
15:39 59.8 °F /  15.4 °C 48.4 °F /  9.1 °C 29.95in /  1014.1hPa SSW 5.0mph /  8km/h 10.0mph /  16.1km/h 66% 0.00in /  0mm
15:44 59.6 °F /  15.3 °C 48.6 °F /  9.2 °C 29.95in /  1014.1hPa SSW 5.0mph /  8km/h 12.0mph /  19.3km/h 67% 0.00in /  0mm
15:49 59.5 °F /  15.3 °C 48.9 °F /  9.4 °C 29.95in /  1014.1hPa SSW 6.0mph /  9.7km/h 12.0mph /  19.3km/h 68% 0.00in /  0mm
15:54 59.3 °F /  15.2 °C 48.7 °F /  9.3 °C 29.95in /  1014.1hPa SW 4.0mph /  6.4km/h 13.0mph /  20.9km/h 68% 0.00in /  0mm
15:59 59.2 °F /  15.1 °C 48.6 °F /  9.2 °C 29.95in /  1014.1hPa SSW 6.0mph /  9.7km/h 13.0mph /  20.9km/h 68% 0.00in /  0mm
16:09 58.6 °F /  14.8 °C 48.5 °F /  9.2 °C 29.95in /  1014.1hPa SSW 3.0mph /  4.8km/h 6.0mph /  9.7km/h 69% 0.00in /  0mm
16:14 58.6 °F /  14.8 °C 48.5 °F /  9.2 °C 29.95in /  1014.1hPa SSW 3.0mph /  4.8km/h 8.0mph /  12.9km/h 69% 0.00in /  0mm
16:19 58.6 °F /  14.8 °C 48.5 °F /  9.2 °C 29.95in /  1014.1hPa SSW 3.0mph /  4.8km/h 8.0mph /  12.9km/h 69% 0.00in /  0mm
16:24 58.4 °F /  14.7 °C 48.7 °F /  9.3 °C 29.95in /  1014.1hPa SSW 3.0mph /  4.8km/h 6.0mph /  9.7km/h 70% 0.00in /  0mm
16:29 58.3 °F /  14.6 °C 48.2 °F /  9 °C 29.95in /  1014.1hPa South 3.0mph /  4.8km/h 7.0mph /  11.3km/h 69% 0.00in /  0mm
16:34 58.3 °F /  14.6 °C 48.2 °F /  9 °C 29.95in /  1014.1hPa SSW 3.0mph /  4.8km/h 8.0mph /  12.9km/h 69% 0.00in /  0mm
16:39 58.2 °F /  14.6 °C 48.1 °F /  8.9 °C 29.95in /  1014.1hPa SSW 6.0mph /  9.7km/h 7.0mph /  11.3km/h 69% 0.00in /  0mm
16:44 58.0 °F /  14.4 °C 47.9 °F /  8.8 °C 29.95in /  1014.1hPa South 4.0mph /  6.4km/h 8.0mph /  12.9km/h 69% 0.00in /  0mm
16:49 58.1 °F /  14.5 °C 47.6 °F /  8.7 °C 29.95in /  1014.1hPa South 4.0mph /  6.4km/h 10.0mph /  16.1km/h 68% 0.00in /  0mm
16:54 58.1 °F /  14.5 °C 47.6 °F /  8.7 °C 29.95in /  1014.1hPa South 6.0mph /  9.7km/h 10.0mph /  16.1km/h 68% 0.00in /  0mm
16:59 58.0 °F /  14.4 °C 47.5 °F /  8.6 °C 29.95in /  1014.1hPa SSW 4.0mph /  6.4km/h 8.0mph /  12.9km/h 68% 0.00in /  0mm
17:04 57.8 °F /  14.3 °C 47.7 °F /  8.7 °C 29.95in /  1014.1hPa South 1.0mph /  1.6km/h 9.0mph /  14.5km/h 69% 0.00in /  0mm
17:09 57.4 °F /  14.1 °C 48.1 °F /  8.9 °C 29.95in /  1014.1hPa South 4.0mph /  6.4km/h 7.0mph /  11.3km/h 71% 0.00in /  0mm
17:19 56.0 °F /  13.3 °C 48.5 °F /  9.2 °C 29.95in /  1014.1hPa South 3.0mph /  4.8km/h 6.0mph /  9.7km/h 76% 0.01in /  0.25mm
17:24 55.7 °F /  13.2 °C 48.6 °F /  9.2 °C 29.94in /  1013.8hPa South 3.0mph /  4.8km/h 8.0mph /  12.9km/h 77% 0.02in /  0.51mm
17:29 55.2 °F /  12.9 °C 48.8 °F /  9.3 °C 29.94in /  1013.8hPa South 2.0mph /  3.2km/h 8.0mph /  12.9km/h 79% 0.03in /  0.76mm
17:34 54.7 °F /  12.6 °C 48.6 °F /  9.2 °C 29.94in /  1013.8hPa South 1.0mph /  1.6km/h 4.0mph /  6.4km/h 80% 0.03in /  0.76mm
17:39 54.4 °F /  12.4 °C 48.7 °F /  9.3 °C 29.94in /  1013.8hPa South 2.0mph /  3.2km/h 4.0mph /  6.4km/h 81% 0.04in /  1.02mm
17:44 54.2 °F /  12.3 °C 48.8 °F /  9.3 °C 29.94in /  1013.8hPa South 1.0mph /  1.6km/h 4.0mph /  6.4km/h 82% 0.05in /  1.27mm
17:49 53.9 °F /  12.2 °C 48.9 °F /  9.4 °C 29.94in /  1013.8hPa South 1.0mph /  1.6km/h 3.0mph /  4.8km/h 83% 0.06in /  1.52mm
17:54 53.5 °F /  11.9 °C 48.8 °F /  9.3 °C 29.95in /  1014.1hPa Calm   2.0mph /  3.2km/h 84% 0.08in /  2.03mm
18:04 53.1 °F /  11.7 °C 49.0 °F /  9.4 °C 29.94in /  1013.8hPa Calm     86% 0.15in /  3.81mm
18:09 53.0 °F /  11.7 °C 49.2 °F /  9.6 °C 29.94in /  1013.8hPa Calm   3.0mph /  4.8km/h 87% 0.17in /  4.32mm
18:14 53.0 °F /  11.7 °C 49.2 °F /  9.6 °C 29.93in /  1013.4hPa South 2.0mph /  3.2km/h 3.0mph /  4.8km/h 87% 0.18in /  4.57mm
18:19 52.7 °F /  11.5 °C 48.9 °F /  9.4 °C 29.93in /  1013.4hPa South 3.0mph /  4.8km/h 3.0mph /  4.8km/h 87% 0.19in /  4.83mm
18:24 52.4 °F /  11.3 °C 48.6 °F /  9.2 °C 29.93in /  1013.4hPa South 2.0mph /  3.2km/h 3.0mph /  4.8km/h 87% 0.19in /  4.83mm
18:29 52.3 °F /  11.3 °C 48.9 °F /  9.4 °C 29.93in /  1013.4hPa South 2.0mph /  3.2km/h 4.0mph /  6.4km/h 88% 0.19in /  4.83mm
18:34 52.0 °F /  11.1 °C 48.6 °F /  9.2 °C 29.92in /  1013.1hPa SSE 2.0mph /  3.2km/h 5.0mph /  8km/h 88% 0.20in /  5.08mm
18:44 51.7 °F /  10.9 °C 48.3 °F /  9.1 °C 29.91in /  1012.8hPa SSE 1.0mph /  1.6km/h 5.0mph /  8km/h 88% 0.19in /  4.83mm
18:54 51.4 °F /  10.8 °C 48.3 °F /  9.1 °C 29.91in /  1012.8hPa Calm   3.0mph /  4.8km/h 89% 0.17in /  4.32mm
19:09 51.4 °F /  10.8 °C 48.3 °F /  9.1 °C 29.91in /  1012.8hPa Calm   4.0mph /  6.4km/h 89% 0.12in /  3.05mm
19:14 51.4 °F /  10.8 °C 48.3 °F /  9.1 °C 29.90in /  1012.4hPa SSE 3.0mph /  4.8km/h 4.0mph /  6.4km/h 89% 0.10in /  2.54mm
19:19 51.4 °F /  10.8 °C 48.3 °F /  9.1 °C 29.90in /  1012.4hPa SSE 2.0mph /  3.2km/h 5.0mph /  8km/h 89% 0.10in /  2.54mm
19:24 51.3 °F /  10.7 °C 48.2 °F /  9 °C 29.89in /  1012.1hPa SE 2.0mph /  3.2km/h 4.0mph /  6.4km/h 89% 0.09in /  2.29mm
19:34 51.3 °F /  10.7 °C 48.5 °F /  9.2 °C 29.89in /  1012.1hPa South 2.0mph /  3.2km/h 6.0mph /  9.7km/h 90% 0.07in /  1.78mm
19:39 51.5 °F /  10.8 °C 48.7 °F /  9.3 °C 29.89in /  1012.1hPa SSE 3.0mph /  4.8km/h 9.0mph /  14.5km/h 90% 0.06in /  1.52mm
19:49 52.2 °F /  11.2 °C 49.4 °F /  9.7 °C 29.89in /  1012.1hPa SSW 7.0mph /  11.3km/h 12.0mph /  19.3km/h 90% 0.07in /  1.78mm
19:54 52.8 °F /  11.6 °C 49.6 °F /  9.8 °C 29.89in /  1012.1hPa South 6.0mph /  9.7km/h 18.0mph /  29km/h 89% 0.08in /  2.03mm
19:59 53.3 °F /  11.8 °C 50.1 °F /  10.1 °C 29.89in /  1012.1hPa South 8.0mph /  12.9km/h 18.0mph /  29km/h 89% 0.07in /  1.78mm
20:09 53.9 °F /  12.2 °C 50.4 °F /  10.2 °C 29.89in /  1012.1hPa South 8.0mph /  12.9km/h 18.0mph /  29km/h 88% 0.06in /  1.52mm
20:14 54.1 °F /  12.3 °C 50.6 °F /  10.3 °C 29.88in /  1011.7hPa South 7.0mph /  11.3km/h 16.0mph /  25.7km/h 88% 0.08in /  2.03mm
20:19 54.3 °F /  12.4 °C 50.8 °F /  10.4 °C 29.88in /  1011.7hPa ESE 4.0mph /  6.4km/h 19.0mph /  30.6km/h 88% 0.08in /  2.03mm
20:24 54.5 °F /  12.5 °C 50.7 °F /  10.4 °C 29.88in /  1011.7hPa South 9.0mph /  14.5km/h 20.0mph /  32.2km/h 87% 0.09in /  2.29mm
20:34 54.6 °F /  12.6 °C 50.8 °F /  10.4 °C 29.87in /  1011.4hPa South 9.0mph /  14.5km/h 16.0mph /  25.7km/h 87% 0.11in /  2.79mm
20:44 54.9 °F /  12.7 °C 51.1 °F /  10.6 °C 29.86in /  1011.1hPa South 10.0mph /  16.1km/h 21.0mph /  33.8km/h 87% 0.11in /  2.79mm
20:49 55.0 °F /  12.8 °C 50.9 °F /  10.5 °C 29.86in /  1011.1hPa South 10.0mph /  16.1km/h 28.0mph /  45.1km/h 86% 0.11in /  2.79mm
20:54 55.2 °F /  12.9 °C 51.1 °F /  10.6 °C 29.85in /  1010.7hPa South 11.0mph /  17.7km/h 28.0mph /  45.1km/h 86% 0.10in /  2.54mm
20:59 55.3 °F /  12.9 °C 51.2 °F /  10.7 °C 29.85in /  1010.7hPa SSE 19.0mph /  30.6km/h 23.0mph /  37km/h 86% 0.10in /  2.54mm
21:14 55.7 °F /  13.2 °C 51.3 °F /  10.7 °C 29.85in /  1010.7hPa South 11.0mph /  17.7km/h 32.0mph /  51.5km/h 85% 0.07in /  1.78mm
21:24 55.8 °F /  13.2 °C 51.4 °F /  10.8 °C 29.84in /  1010.4hPa South 12.0mph /  19.3km/h 27.0mph /  43.5km/h 85% 0.05in /  1.27mm
21:29 56.0 °F /  13.3 °C 51.6 °F /  10.9 °C 29.84in /  1010.4hPa South 11.0mph /  17.7km/h 23.0mph /  37km/h 85% 0.04in /  1.02mm
21:34 56.1 °F /  13.4 °C 51.3 °F /  10.7 °C 29.83in /  1010hPa South 11.0mph /  17.7km/h 23.0mph /  37km/h 84% 0.03in /  0.76mm
21:39 56.2 °F /  13.4 °C 51.4 °F /  10.8 °C 29.83in /  1010hPa South 11.0mph /  17.7km/h 23.0mph /  37km/h 84% 0.03in /  0.76mm
21:44 56.3 °F /  13.5 °C 51.5 °F /  10.8 °C 29.83in /  1010hPa South 11.0mph /  17.7km/h 22.0mph /  35.4km/h 84% 0.02in /  0.51mm
21:49 56.5 °F /  13.6 °C 51.4 °F /  10.8 °C 29.83in /  1010hPa SSW 18.0mph /  29km/h 24.0mph /  38.6km/h 83% 0.01in /  0.25mm
21:54 56.6 °F /  13.7 °C 51.5 °F /  10.8 °C 29.83in /  1010hPa SSE 9.0mph /  14.5km/h 25.0mph /  40.2km/h 83% 0.01in /  0.25mm
21:59 56.7 °F /  13.7 °C 51.3 °F /  10.7 °C 29.83in /  1010hPa South 12.0mph /  19.3km/h 25.0mph /  40.2km/h 82% 0.01in /  0.25mm
22:04 56.8 °F /  13.8 °C 51.4 °F /  10.8 °C 29.83in /  1010hPa South 18.0mph /  29km/h 19.0mph /  30.6km/h 82% 0.01in /  0.25mm
22:14 57.1 °F /  13.9 °C 51.3 °F /  10.7 °C 29.83in /  1010hPa SE 11.0mph /  17.7km/h 21.0mph /  33.8km/h 81% 0.00in /  0mm
22:19 57.1 °F /  13.9 °C 51.3 °F /  10.7 °C 29.83in /  1010hPa South 14.0mph /  22.5km/h 22.0mph /  35.4km/h 81% 0.00in /  0mm
22:24 57.1 °F /  13.9 °C 51.0 °F /  10.6 °C 29.82in /  1009.7hPa SSW 12.0mph /  19.3km/h 17.0mph /  27.4km/h 80% 0.00in /  0mm
22:29 57.1 °F /  13.9 °C 51.0 °F /  10.6 °C 29.83in /  1010hPa South 12.0mph /  19.3km/h 22.0mph /  35.4km/h 80% 0.00in /  0mm
22:34 57.0 °F /  13.9 °C 50.9 °F /  10.5 °C 29.83in /  1010hPa South 12.0mph /  19.3km/h 25.0mph /  40.2km/h 80% 0.00in /  0mm
22:39 56.8 °F /  13.8 °C 50.7 °F /  10.4 °C 29.83in /  1010hPa South 11.0mph /  17.7km/h 25.0mph /  40.2km/h 80% 0.00in /  0mm
22:44 56.7 °F /  13.7 °C 50.6 °F /  10.3 °C 29.82in /  1009.7hPa South 11.0mph /  17.7km/h 21.0mph /  33.8km/h 80% 0.00in /  0mm
22:49 56.7 °F /  13.7 °C 50.6 °F /  10.3 °C 29.82in /  1009.7hPa South 11.0mph /  17.7km/h 29.0mph /  46.7km/h 80% 0.00in /  0mm
22:54 56.7 °F /  13.7 °C 50.9 °F /  10.5 °C 29.82in /  1009.7hPa South 11.0mph /  17.7km/h 29.0mph /  46.7km/h 81% 0.00in /  0mm
23:04 56.8 °F /  13.8 °C 50.7 °F /  10.4 °C 29.82in /  1009.7hPa SSE 6.0mph /  9.7km/h 23.0mph /  37km/h 80% 0.00in /  0mm
23:09 56.9 °F /  13.8 °C 50.8 °F /  10.4 °C 29.82in /  1009.7hPa SSE 14.0mph /  22.5km/h 23.0mph /  37km/h 80% 0.00in /  0mm
23:14 56.9 °F /  13.8 °C 50.8 °F /  10.4 °C 29.82in /  1009.7hPa South 18.0mph /  29km/h 21.0mph /  33.8km/h 80% 0.00in /  0mm
23:24 56.8 °F /  13.8 °C 50.7 °F /  10.4 °C 29.82in /  1009.7hPa SSW 5.0mph /  8km/h 16.0mph /  25.7km/h 80% 0.00in /  0mm
23:29 56.7 °F /  13.7 °C 50.9 °F /  10.5 °C 29.81in /  1009.4hPa South 9.0mph /  14.5km/h 22.0mph /  35.4km/h 81% 0.00in /  0mm
23:34 56.9 °F /  13.8 °C 51.1 °F /  10.6 °C 29.82in /  1009.7hPa SSW 7.0mph /  11.3km/h 22.0mph /  35.4km/h 81% 0.00in /  0mm
23:39 57.0 °F /  13.9 °C 50.9 °F /  10.5 °C 29.81in /  1009.4hPa South 11.0mph /  17.7km/h 22.0mph /  35.4km/h 80% 0.00in /  0mm
23:44 57.0 °F /  13.9 °C 50.9 °F /  10.5 °C 29.81in /  1009.4hPa South 10.0mph /  16.1km/h 22.0mph /  35.4km/h 80% 0.00in /  0mm
23:49 56.9 °F /  13.8 °C 51.1 °F /  10.6 °C 29.80in /  1009hPa South 10.0mph /  16.1km/h 21.0mph /  33.8km/h 81% 0.00in /  0mm
23:54 56.6 °F /  13.7 °C 51.2 °F /  10.7 °C 29.80in /  1009hPa South 9.0mph /  14.5km/h 19.0mph /  30.6km/h 82% 0.00in /  0mm
23:59 56.5 °F /  13.6 °C 51.1 °F /  10.6 °C 29.80in /  1009hPa SSW 10.0mph /  16.1km/h 18.0mph /  29km/h 82% 0.00in /  0mm
Buffalo, New York, USA
Compliments of Weather Underground - 2.25 mb